Aérodrome :
LOGIN :

S'inscrire | Disclaimer

   EN    FR    IT 

 










Légende :    VFR   VFR Marginal   IFR   IFR Intensif   IFR Très Intensif
Visi : 
Plafond : 
>= 8 km
>= 3000ft
5 à 8 km
1000 à 3000 ft
1500m à 5 km
500 à 1000 ft
800 à 1500m
200 à 500 ft
< 800m
< 200 ft
Symboles :   Orages  Brouillard  Fortes neiges  Fortes précipitations  Vent > 20 kt
SIGMETs :   Divers  Orages  Givrage  Turbulence  Onde Orograph.  Cendres Volcan.






- Altitude de l'aérodrome : 299 ft
- Code IATA : EDM


LFRI - La Roche Sur Yon - Les Ajoncs

DERNIER METAR :
  • 101700Z AUTO 34009KT 310V010 CAVOK 21/11 Q1020 NOSIG

METARs EXPIRÉS :
  • 101630Z AUTO 34010KT 310V010 CAVOK 22/11 Q1020 NOSIG
  • 101600Z AUTO 01010KT 330V040 CAVOK 22/11 Q1019 NOSIG
  • 101530Z AUTO 36009KT CAVOK 21/12 Q1020 NOSIG
  • 101500Z AUTO 36007KT 320V030 CAVOK 20/12 Q1020 NOSIG
  • 101430Z AUTO 34009KT CAVOK 19/12 Q1020 NOSIG

TAF TAF LFRI
Valide du 10 à 12h jusqu'au 11 à 12h UTC


101100Z 1012/1112 35008KT 9999 SCT025
BECMG 1108/1110 05010KT



MET'MAP, la Météo Aéronautique d'un coup d'oeil ! - Copyright ORBIFLY Décembre 2007 - Disclaimer

ORBIFLY MET'MAP TEAM :

Programmation & Développement : Alexandra Zaïnal
Sur une idée originale de : Baudouin d'Aumeries
Assistance à la programmation : Marc-Olivier Méhu
Soutien technique & logistique : Manuel Goepfert

Contact : metmap@orbifly.com




SOURCES & CREDITS :

   NOAA